createdAt,value
2019-04-20T00:01:58.204Z,10.70
2019-04-20T00:04:27.177Z,10.80
2019-04-20T00:06:54.796Z,10.90
2019-04-20T00:09:26.541Z,10.70
2019-04-20T00:12:03.908Z,10.50
2019-04-20T00:14:27.677Z,10.60
2019-04-20T00:16:54.698Z,10.50
2019-04-20T00:19:33.718Z,10.60
2019-04-20T00:22:02.939Z,10.40
2019-04-20T00:24:33.622Z,10.20
2019-04-20T00:27:26.068Z,10.20
2019-04-20T00:29:51.064Z,10.20
2019-04-20T00:32:12.579Z,10.20
2019-04-20T00:34:33.802Z,10.20
2019-04-20T00:37:00.349Z,9.90
2019-04-20T00:39:29.965Z,9.80
2019-04-20T00:42:03.514Z,9.60
2019-04-20T00:44:34.210Z,9.50
2019-04-20T00:47:09.597Z,9.50
2019-04-20T00:49:45.660Z,9.50
2019-04-20T00:54:30.568Z,10.00
2019-04-20T00:57:09.340Z,10.20
2019-04-20T00:59:53.980Z,10.10
2019-04-20T01:02:19.400Z,10.00
2019-04-20T01:04:55.827Z,9.90
2019-04-20T01:07:24.339Z,9.80
2019-04-20T01:10:00.447Z,9.60
2019-04-20T01:12:31.768Z,9.60
2019-04-20T01:15:05.161Z,9.40
2019-04-20T01:17:29.799Z,9.30
2019-04-20T01:19:58.245Z,9.00
2019-04-20T01:22:28.692Z,8.90
2019-04-20T01:25:06.893Z,8.90
2019-04-20T01:27:41.175Z,8.70
2019-04-20T01:30:07.048Z,8.60
2019-04-20T01:32:34.298Z,8.50
2019-04-20T01:35:10.058Z,8.40
2019-04-20T01:37:38.418Z,8.30
2019-04-20T01:40:02.347Z,8.40
2019-04-20T01:42:28.202Z,8.40
2019-04-20T01:44:57.396Z,8.60
2019-04-20T01:47:32.084Z,8.50
2019-04-20T01:50:04.704Z,8.50
2019-04-20T01:52:41.370Z,8.60
2019-04-20T01:55:15.762Z,8.50
2019-04-20T01:57:55.014Z,8.60
2019-04-20T02:00:13.403Z,8.40
2019-04-20T02:02:49.719Z,8.30
2019-04-20T02:05:20.703Z,8.10
2019-04-20T02:07:47.549Z,8.00
2019-04-20T02:10:16.852Z,8.10
2019-04-20T02:12:50.322Z,8.00
2019-04-20T02:15:26.224Z,8.10
2019-04-20T02:17:59.572Z,8.00
2019-04-20T02:20:37.874Z,8.00
2019-04-20T02:22:59.421Z,7.80
2019-04-20T02:25:16.360Z,7.80
2019-04-20T02:27:50.516Z,7.80
2019-04-20T02:30:51.774Z,8.10
2019-04-20T02:33:29.579Z,8.60
2019-04-20T02:35:56.690Z,8.90
2019-04-20T02:38:21.777Z,8.60
2019-04-20T02:41:03.922Z,8.30
2019-04-20T02:43:25.357Z,8.20
2019-04-20T02:45:51.029Z,8.30
2019-04-20T02:48:21.692Z,8.30
2019-04-20T02:50:49.945Z,8.10
2019-04-20T02:55:55.550Z,7.70
2019-04-20T02:58:23.884Z,7.60
2019-04-20T03:00:44.762Z,7.70
2019-04-20T03:03:07.803Z,7.60
2019-04-20T03:05:33.214Z,7.50
2019-04-20T03:08:16.453Z,7.50
2019-04-20T03:10:52.435Z,7.40
2019-04-20T03:13:15.882Z,7.50
2019-04-20T03:15:44.478Z,7.50
2019-04-20T03:18:15.010Z,7.30
2019-04-20T03:20:48.901Z,7.10
2019-04-20T03:25:55.529Z,6.90
2019-04-20T03:28:26.484Z,7.20
2019-04-20T03:33:52.805Z,7.10
2019-04-20T03:36:09.336Z,7.10
2019-04-20T03:38:27.221Z,6.90
2019-04-20T03:40:48.347Z,6.90
2019-04-20T03:43:07.649Z,6.80
2019-04-20T03:45:44.597Z,6.80
2019-04-20T03:48:26.439Z,7.00
2019-04-20T03:50:58.943Z,7.20
2019-04-20T03:53:29.244Z,7.10
2019-04-20T03:56:03.718Z,7.20
2019-04-20T03:58:33.421Z,7.10
2019-04-20T04:01:22.754Z,6.80
2019-04-20T04:03:56.075Z,6.70
2019-04-20T04:06:18.723Z,6.70
2019-04-20T04:08:55.065Z,7.10
2019-04-20T04:11:27.619Z,7.40
2019-04-20T04:13:39.755Z,7.30
2019-04-20T04:16:12.149Z,7.20
2019-04-20T04:18:42.547Z,7.10
2019-04-20T04:21:13.928Z,6.90
2019-04-20T04:23:56.089Z,6.80
2019-04-20T04:26:26.432Z,6.90
2019-04-20T04:28:53.435Z,7.10
2019-04-20T04:31:27.599Z,7.30
2019-04-20T04:33:59.401Z,7.10
2019-04-20T04:36:26.019Z,7.00
2019-04-20T04:39:03.703Z,6.90
2019-04-20T04:41:26.777Z,7.10
2019-04-20T04:43:58.734Z,7.10
2019-04-20T04:46:10.390Z,7.00
2019-04-20T04:48:44.021Z,7.20
2019-04-20T04:51:20.030Z,7.20
2019-04-20T04:53:50.012Z,7.00
2019-04-20T04:56:13.197Z,7.00
2019-04-20T04:58:40.479Z,6.90
2019-04-20T05:01:14.811Z,6.90
2019-04-20T05:04:03.269Z,6.80
2019-04-20T05:06:28.108Z,6.70
2019-04-20T05:08:48.943Z,6.80
2019-04-20T05:11:13.026Z,6.80
2019-04-20T05:13:48.912Z,7.00
2019-04-20T05:16:27.606Z,7.10
2019-04-20T05:19:08.026Z,7.20
2019-04-20T05:21:39.813Z,7.30
2019-04-20T05:24:26.907Z,7.30
2019-04-20T05:27:03.064Z,7.50
2019-04-20T05:29:17.795Z,7.50
2019-04-20T05:31:49.072Z,7.50
2019-04-20T05:34:30.503Z,7.60
2019-04-20T05:37:03.697Z,7.80
2019-04-20T05:39:32.983Z,8.00
2019-04-20T05:42:07.747Z,8.00
2019-04-20T05:44:38.838Z,8.10
2019-04-20T05:47:06.984Z,8.10
2019-04-20T05:49:34.816Z,8.20
2019-04-20T05:52:15.347Z,8.30
2019-04-20T05:54:42.983Z,8.20
2019-04-20T05:57:05.600Z,8.40
2019-04-20T05:59:34.920Z,8.60
2019-04-20T06:02:14.067Z,8.90
2019-04-20T06:04:55.668Z,9.00
2019-04-20T06:07:09.362Z,9.20
2019-04-20T06:09:39.767Z,9.30
2019-04-20T06:12:19.987Z,9.40
2019-04-20T06:14:48.325Z,9.50
2019-04-20T06:17:31.463Z,9.70
2019-04-20T06:20:09.093Z,9.90
2019-04-20T06:22:41.644Z,10.10
2019-04-20T06:25:31.225Z,10.30
2019-04-20T06:27:49.821Z,10.40
2019-04-20T06:30:11.212Z,10.50
2019-04-20T06:33:35.572Z,10.60
2019-04-20T06:36:07.858Z,10.80
2019-04-20T06:38:36.494Z,10.90
2019-04-20T06:41:00.788Z,10.90
2019-04-20T06:43:25.461Z,11.00
2019-04-20T06:46:01.504Z,11.10
2019-04-20T06:48:30.530Z,11.10
2019-04-20T06:50:49.508Z,11.20
2019-04-20T06:53:36.640Z,11.40
2019-04-20T06:56:09.999Z,11.40
2019-04-20T06:58:46.476Z,11.60
2019-04-20T07:01:10.599Z,11.70
2019-04-20T07:03:56.800Z,11.90
2019-04-20T07:06:20.945Z,12.00
2019-04-20T07:08:53.194Z,12.10
2019-04-20T07:11:10.963Z,12.20
2019-04-20T07:13:30.957Z,12.30
2019-04-20T07:16:18.111Z,12.40
2019-04-20T07:19:06.200Z,12.40
2019-04-20T07:24:40.284Z,12.50
2019-04-20T07:27:10.346Z,12.60
2019-04-20T07:29:41.135Z,12.70
2019-04-20T07:32:04.018Z,12.90
2019-04-20T07:34:43.710Z,12.90
2019-04-20T07:37:43.211Z,13.00
2019-04-20T07:39:40.506Z,13.10
2019-04-20T07:42:17.910Z,13.20
2019-04-20T07:44:42.794Z,13.30
2019-04-20T07:47:14.126Z,13.30
2019-04-20T07:49:41.636Z,13.40
2019-04-20T07:51:51.098Z,13.40
2019-04-20T07:54:50.716Z,13.60
2019-04-20T07:57:10.234Z,13.70
2019-04-20T07:59:32.537Z,13.80
2019-04-20T08:02:32.119Z,13.70
2019-04-20T08:05:01.690Z,13.80
2019-04-20T08:07:17.524Z,13.80
2019-04-20T08:09:56.649Z,13.90
2019-04-20T08:12:55.659Z,13.90
2019-04-20T08:15:38.031Z,14.00
2019-04-20T08:17:56.552Z,14.10
2019-04-20T08:20:17.127Z,14.20
2019-04-20T08:22:53.152Z,14.30
2019-04-20T08:25:14.224Z,14.40
2019-04-20T08:27:48.696Z,14.50
2019-04-20T08:30:38.917Z,14.70
2019-04-20T08:33:14.396Z,14.60
2019-04-20T08:35:53.968Z,14.80
2019-04-20T08:38:49.895Z,14.90
2019-04-20T08:40:50.280Z,15.00
2019-04-20T08:43:30.062Z,15.00
2019-04-20T08:45:48.749Z,15.10
2019-04-20T08:48:27.568Z,15.10
2019-04-20T08:50:50.787Z,15.00
2019-04-20T08:55:45.047Z,15.20
2019-04-20T08:58:00.632Z,15.20
2019-04-20T09:00:35.955Z,15.20
2019-04-20T09:03:09.379Z,15.20
2019-04-20T09:05:42.467Z,15.50
2019-04-20T09:08:09.258Z,15.70
2019-04-20T09:10:48.175Z,15.60
2019-04-20T09:13:11.582Z,15.70
2019-04-20T09:15:32.095Z,15.70
2019-04-20T09:18:09.083Z,15.80
2019-04-20T09:20:43.533Z,15.90
2019-04-20T09:23:21.492Z,16.00
2019-04-20T09:26:02.297Z,15.90
2019-04-20T09:28:18.916Z,16.00
2019-04-20T09:31:02.611Z,16.00
2019-04-20T09:33:48.704Z,16.10
2019-04-20T09:36:14.322Z,16.20
2019-04-20T09:39:00.135Z,16.10
2019-04-20T09:41:47.073Z,16.20
2019-04-20T09:43:54.090Z,16.50
2019-04-20T09:46:24.185Z,16.60
2019-04-20T09:48:58.889Z,16.60
2019-04-20T09:51:42.376Z,16.60
2019-04-20T09:54:04.273Z,16.70
2019-04-20T09:56:36.990Z,17.00
2019-04-20T09:59:12.253Z,17.00
2019-04-20T10:01:33.959Z,16.80
2019-04-20T10:03:54.776Z,16.70
2019-04-20T10:06:27.296Z,17.00
2019-04-20T10:08:56.818Z,17.40
2019-04-20T10:11:23.882Z,17.50
2019-04-20T10:13:52.356Z,17.60
2019-04-20T10:16:21.866Z,17.60
2019-04-20T10:18:53.494Z,17.50
2019-04-20T10:21:20.662Z,17.50
2019-04-20T10:23:50.295Z,17.50
2019-04-20T10:26:18.996Z,17.70
2019-04-20T10:28:47.742Z,17.80
2019-04-20T10:31:16.767Z,17.90
2019-04-20T10:33:45.970Z,17.90
2019-04-20T10:36:19.516Z,17.90
2019-04-20T10:38:48.535Z,19.80
2019-04-20T10:41:29.609Z,23.80
2019-04-20T10:43:47.421Z,25.80
2019-04-20T10:46:17.058Z,27.40
2019-04-20T10:48:50.816Z,28.70
2019-04-20T10:51:17.638Z,29.60
2019-04-20T10:53:52.181Z,30.10
2019-04-20T10:56:21.366Z,31.10
2019-04-20T10:58:49.948Z,30.80
2019-04-20T11:01:19.845Z,31.90
2019-04-20T11:03:48.419Z,31.40
2019-04-20T11:06:16.896Z,29.10
2019-04-20T11:08:46.577Z,30.40
2019-04-20T11:11:23.139Z,31.10
2019-04-20T11:13:45.654Z,31.70
2019-04-20T11:16:14.776Z,31.70
2019-04-20T11:18:43.610Z,30.40
2019-04-20T11:21:13.347Z,31.30
2019-04-20T11:23:42.508Z,30.80
2019-04-20T11:26:11.477Z,32.30
2019-04-20T11:28:40.030Z,33.10
2019-04-20T11:31:12.447Z,32.20
2019-04-20T11:33:42.435Z,31.80
2019-04-20T11:36:11.098Z,31.10
2019-04-20T11:38:40.809Z,30.80
2019-04-20T11:41:16.546Z,31.70
2019-04-20T11:43:39.875Z,30.50
2019-04-20T11:46:08.972Z,31.90
2019-04-20T11:48:37.768Z,31.90
2019-04-20T11:51:07.438Z,32.20
2019-04-20T11:53:36.449Z,31.60
2019-04-20T11:56:07.603Z,32.20
2019-04-20T11:58:36.148Z,31.50
2019-04-20T12:01:27.179Z,31.30
2019-04-20T12:04:01.715Z,31.80
2019-04-20T12:06:23.343Z,31.80
2019-04-20T12:08:52.597Z,33.10
2019-04-20T12:11:33.041Z,32.80
2019-04-20T12:13:52.255Z,32.10
2019-04-20T12:16:21.524Z,32.40
2019-04-20T12:18:50.474Z,31.40
2019-04-20T12:21:19.184Z,32.80
2019-04-20T12:23:48.683Z,32.50
2019-04-20T12:26:18.495Z,33.10
2019-04-20T12:28:47.572Z,33.50
2019-04-20T12:31:20.464Z,33.70
2019-04-20T12:33:46.543Z,33.20
2019-04-20T12:36:16.361Z,33.30
2019-04-20T12:38:46.153Z,33.60
2019-04-20T12:41:16.129Z,33.80
2019-04-20T12:43:45.679Z,34.00
2019-04-20T12:46:17.053Z,33.60
2019-04-20T12:48:44.513Z,32.70
2019-04-20T12:51:19.674Z,33.50
2019-04-20T12:53:48.754Z,34.20
2019-04-20T12:56:17.338Z,34.00
2019-04-20T12:58:45.797Z,34.10
2019-04-20T13:01:14.642Z,34.70
2019-04-20T13:03:45.626Z,34.00
2019-04-20T13:06:16.185Z,33.60
2019-04-20T13:08:51.786Z,34.30
2019-04-20T13:11:24.695Z,32.20
2019-04-20T13:14:24.747Z,32.10
2019-04-20T13:16:53.990Z,33.70
2019-04-20T13:19:23.678Z,32.90
2019-04-20T13:21:52.788Z,32.60
2019-04-20T13:24:21.339Z,32.70
2019-04-20T13:26:50.931Z,31.20
2019-04-20T13:29:19.663Z,31.00
2019-04-20T13:31:50.174Z,32.70
2019-04-20T13:34:18.363Z,33.60
2019-04-20T13:36:46.823Z,33.20
2019-04-20T13:39:16.445Z,33.30
2019-04-20T13:41:57.571Z,33.60
2019-04-20T13:44:15.779Z,33.80
2019-04-20T13:46:45.050Z,34.30
2019-04-20T13:49:15.333Z,34.10
2019-04-20T13:51:44.594Z,33.30
2019-04-20T13:54:18.023Z,34.20
2019-04-20T13:56:44.204Z,34.70
2019-04-20T13:59:26.083Z,34.20
2019-04-20T14:01:57.038Z,34.40
2019-04-20T14:04:30.690Z,33.50
2019-04-20T14:07:01.714Z,34.10
2019-04-20T14:09:30.455Z,33.40
2019-04-20T14:12:11.858Z,33.50
2019-04-20T14:14:29.723Z,32.80
2019-04-20T14:16:59.368Z,31.40
2019-04-20T14:19:29.216Z,31.20
2019-04-20T14:21:57.856Z,32.00
2019-04-20T14:24:26.811Z,32.90
2019-04-20T14:26:55.308Z,33.50
2019-04-20T14:29:25.093Z,31.10
2019-04-20T14:31:53.808Z,31.90
2019-04-20T14:34:22.719Z,32.40
2019-04-20T14:36:52.858Z,31.30
2019-04-20T14:39:24.449Z,32.20
2019-04-20T14:41:56.191Z,33.60
2019-04-20T14:44:25.686Z,34.00
2019-04-20T14:46:55.647Z,33.40
2019-04-20T14:49:24.962Z,33.00
2019-04-20T14:51:55.827Z,31.20
2019-04-20T14:54:23.767Z,32.80
2019-04-20T14:56:53.599Z,32.30
2019-04-20T14:59:25.236Z,31.80
2019-04-20T15:02:00.956Z,32.10
2019-04-20T15:04:33.181Z,31.80
2019-04-20T15:07:04.660Z,31.50
2019-04-20T15:09:36.730Z,32.40
2019-04-20T15:12:04.677Z,33.40
2019-04-20T15:14:34.510Z,33.00
2019-04-20T15:17:04.646Z,33.00
2019-04-20T15:19:36.131Z,32.60
2019-04-20T15:22:05.578Z,32.60
2019-04-20T15:24:35.536Z,30.80
2019-04-20T15:27:06.946Z,30.30
2019-04-20T15:29:36.006Z,30.00
2019-04-20T15:32:05.957Z,30.20
2019-04-20T15:34:35.069Z,31.80
2019-04-20T15:37:05.352Z,32.60
2019-04-20T15:39:34.892Z,32.10
2019-04-20T15:42:03.615Z,31.10
2019-04-20T15:44:33.444Z,32.00
2019-04-20T15:47:03.533Z,32.40
2019-04-20T15:49:33.669Z,33.10
2019-04-20T15:52:03.809Z,32.80
2019-04-20T15:54:33.713Z,32.20
2019-04-20T15:57:09.793Z,31.50
2019-04-20T15:59:32.802Z,31.70
2019-04-20T16:02:03.184Z,32.20
2019-04-20T16:04:52.541Z,32.40
2019-04-20T16:07:21.513Z,31.90
2019-04-20T16:09:51.780Z,31.70
2019-04-20T16:12:22.732Z,31.90
2019-04-20T16:14:51.445Z,32.00
2019-04-20T16:17:25.223Z,32.10
2019-04-20T16:19:57.039Z,31.60
2019-04-20T16:22:24.244Z,31.60
2019-04-20T16:25:11.732Z,31.10
2019-04-20T16:27:41.554Z,30.70
2019-04-20T16:30:11.579Z,30.20
2019-04-20T16:32:40.703Z,29.40
2019-04-20T16:35:10.914Z,29.20
2019-04-20T16:37:42.366Z,29.00
2019-04-20T16:40:11.345Z,29.50
2019-04-20T16:42:42.105Z,30.30
2019-04-20T16:45:11.590Z,29.90
2019-04-20T16:47:40.189Z,29.20
2019-04-20T16:50:11.009Z,27.00
2019-04-20T16:52:40.967Z,27.60
2019-04-20T16:55:11.307Z,25.90
2019-04-20T16:57:40.085Z,25.80
2019-04-20T17:00:09.553Z,25.80
2019-04-20T17:02:38.264Z,25.60
2019-04-20T17:05:07.322Z,25.30
2019-04-20T17:07:40.152Z,24.60
2019-04-20T17:10:11.848Z,23.70
2019-04-20T17:12:41.924Z,24.00
2019-04-20T17:15:13.617Z,24.10
2019-04-20T17:17:43.359Z,23.60
2019-04-20T17:20:15.511Z,23.30
2019-04-20T17:22:44.428Z,23.00
2019-04-20T17:25:16.166Z,22.90
2019-04-20T17:27:57.199Z,23.20
2019-04-20T17:30:47.307Z,22.50
2019-04-20T17:33:25.775Z,23.00
2019-04-20T17:36:04.495Z,23.00
2019-04-20T17:38:24.745Z,22.70
2019-04-20T17:41:11.772Z,22.50
2019-04-20T17:43:33.154Z,22.20
2019-04-20T17:46:06.915Z,22.60
2019-04-20T17:48:39.974Z,22.60
2019-04-20T17:51:20.459Z,22.50
2019-04-20T17:53:54.555Z,22.50
2019-04-20T17:56:18.592Z,22.30
2019-04-20T17:58:48.036Z,22.30
2019-04-20T18:01:26.623Z,22.20
2019-04-20T18:04:20.041Z,22.10
2019-04-20T18:06:39.492Z,22.20
2019-04-20T18:09:03.142Z,22.10
2019-04-20T18:11:23.514Z,21.90
2019-04-20T18:13:58.892Z,21.30
2019-04-20T18:16:46.560Z,21.10
2019-04-20T18:19:21.712Z,20.80
2019-04-20T18:21:47.817Z,20.50
2019-04-20T18:24:38.734Z,20.50
2019-04-20T18:27:03.014Z,20.40
2019-04-20T18:29:38.404Z,20.40
2019-04-20T18:32:01.765Z,20.00
2019-04-20T18:34:52.967Z,20.10
2019-04-20T18:37:21.235Z,19.70
2019-04-20T18:39:55.831Z,19.60
2019-04-20T18:42:24.941Z,19.70
2019-04-20T18:45:10.703Z,19.50
2019-04-20T18:47:44.274Z,19.30
2019-04-20T18:49:57.140Z,19.30
2019-04-20T18:52:19.776Z,19.60
2019-04-20T18:54:51.487Z,19.90
2019-04-20T18:57:23.226Z,20.10
2019-04-20T18:59:52.950Z,19.80
2019-04-20T19:02:26.512Z,19.30
2019-04-20T19:04:50.096Z,19.00
2019-04-20T19:07:19.747Z,18.90
2019-04-20T19:09:48.580Z,18.70
2019-04-20T19:12:17.288Z,18.70
2019-04-20T19:14:49.558Z,18.50
2019-04-20T19:17:49.794Z,18.40
2019-04-20T19:20:27.006Z,18.40
2019-04-20T19:22:54.041Z,18.20
2019-04-20T19:25:27.025Z,18.30
2019-04-20T19:27:56.581Z,18.50
2019-04-20T19:30:36.481Z,18.40
2019-04-20T19:33:17.582Z,18.40
2019-04-20T19:35:39.972Z,17.90
2019-04-20T19:38:06.569Z,17.70
2019-04-20T19:40:42.937Z,17.50
2019-04-20T19:43:14.765Z,17.40
2019-04-20T19:45:56.685Z,17.20
2019-04-20T19:48:21.344Z,17.10
2019-04-20T19:50:58.937Z,16.90
2019-04-20T19:53:26.341Z,16.70
2019-04-20T19:55:47.736Z,16.50
2019-04-20T19:58:18.854Z,16.30
2019-04-20T20:00:51.356Z,16.10
2019-04-20T20:03:17.879Z,16.00
2019-04-20T20:05:53.839Z,15.80
2019-04-20T20:08:23.847Z,15.60
2019-04-20T20:10:50.636Z,15.50
2019-04-20T20:13:20.435Z,15.40
2019-04-20T20:15:57.509Z,15.30
2019-04-20T20:18:35.615Z,15.30
2019-04-20T20:21:04.509Z,15.40
2019-04-20T20:23:20.322Z,15.60
2019-04-20T20:25:50.120Z,15.30
2019-04-20T20:28:31.021Z,14.90
2019-04-20T20:31:03.461Z,14.60
2019-04-20T20:33:36.516Z,14.40
2019-04-20T20:36:05.551Z,14.30
2019-04-20T20:38:35.246Z,14.30
2019-04-20T20:41:05.649Z,14.30
2019-04-20T20:43:40.964Z,14.30
2019-04-20T20:46:17.234Z,14.30
2019-04-20T20:48:57.503Z,14.10
2019-04-20T20:51:27.907Z,14.00
2019-04-20T20:53:51.006Z,14.00
2019-04-20T20:56:15.495Z,14.00
2019-04-20T20:58:48.626Z,13.90
2019-04-20T21:01:14.126Z,13.80
2019-04-20T21:03:46.077Z,13.70
2019-04-20T21:06:15.625Z,13.70
2019-04-20T21:08:51.472Z,13.50
2019-04-20T21:11:21.996Z,13.40
2019-04-20T21:13:49.232Z,13.40
2019-04-20T21:16:23.872Z,13.30
2019-04-20T21:19:07.023Z,13.20
2019-04-20T21:21:36.074Z,13.10
2019-04-20T21:23:56.718Z,13.00
2019-04-20T21:26:27.065Z,12.90
2019-04-20T21:28:50.173Z,12.70
2019-04-20T21:31:24.334Z,12.70
2019-04-20T21:33:51.063Z,12.60
2019-04-20T21:36:24.593Z,12.50
2019-04-20T21:38:50.112Z,12.50
2019-04-20T21:41:21.736Z,12.50
2019-04-20T21:43:49.861Z,12.60
2019-04-20T21:46:18.808Z,12.60
2019-04-20T21:49:00.701Z,12.50
2019-04-20T21:51:30.349Z,12.30
2019-04-20T21:53:48.339Z,12.10
2019-04-20T21:56:17.733Z,12.00
2019-04-20T21:58:55.341Z,11.90
2019-04-20T22:01:28.388Z,11.90
2019-04-20T22:03:52.392Z,11.90
2019-04-20T22:06:22.351Z,11.80
2019-04-20T22:08:56.752Z,11.80
2019-04-20T22:11:21.947Z,11.80
2019-04-20T22:13:51.709Z,11.50
2019-04-20T22:16:23.815Z,11.60
2019-04-20T22:18:59.163Z,11.30
2019-04-20T22:21:26.519Z,11.20
2019-04-20T22:24:05.371Z,11.10
2019-04-20T22:26:32.146Z,11.10
2019-04-20T22:28:52.163Z,11.50
2019-04-20T22:31:22.135Z,12.10
2019-04-20T22:33:52.242Z,12.20
2019-04-20T22:36:27.423Z,12.00
2019-04-20T22:39:09.800Z,12.00
2019-04-20T22:41:48.204Z,12.10
2019-04-20T22:44:15.208Z,12.40
2019-04-20T22:46:43.755Z,12.10
2019-04-20T22:49:26.645Z,11.70
2019-04-20T22:51:52.006Z,11.20
2019-04-20T22:54:31.231Z,10.90
2019-04-20T22:56:55.137Z,10.80
2019-04-20T22:59:18.485Z,10.90
2019-04-20T23:01:49.871Z,11.00
2019-04-20T23:04:14.874Z,10.90
2019-04-20T23:06:48.138Z,10.80
2019-04-20T23:09:14.928Z,10.80
2019-04-20T23:11:45.064Z,10.90
2019-04-20T23:14:14.296Z,10.70
2019-04-20T23:16:48.649Z,10.60
2019-04-20T23:19:14.196Z,10.60
2019-04-20T23:21:48.542Z,10.60
2019-04-20T23:24:14.890Z,10.40
2019-04-20T23:26:45.629Z,10.30
2019-04-20T23:29:13.515Z,10.30
2019-04-20T23:31:50.560Z,10.10
2019-04-20T23:34:16.573Z,10.10
2019-04-20T23:36:45.764Z,10.10
2019-04-20T23:39:13.034Z,10.10
2019-04-20T23:41:49.969Z,10.20
2019-04-20T23:44:19.262Z,10.10
2019-04-20T23:46:59.235Z,9.90
2019-04-20T23:49:29.890Z,9.60
2019-04-20T23:52:24.800Z,9.50
2019-04-20T23:54:27.926Z,9.40
2019-04-20T23:56:55.645Z,9.20
2019-04-20T23:59:29.021Z,9.00
